createdAt,value
2023-02-02T00:01:36.770Z,13.50
2023-02-02T00:04:04.118Z,13.50
2023-02-02T00:06:32.623Z,13.50
2023-02-02T00:09:01.651Z,13.50
2023-02-02T00:11:28.710Z,13.50
2023-02-02T00:13:55.597Z,13.50
2023-02-02T00:16:31.719Z,13.50
2023-02-02T00:19:01.619Z,13.40
2023-02-02T00:21:29.162Z,13.40
2023-02-02T00:23:56.088Z,13.40
2023-02-02T00:26:23.403Z,13.40
2023-02-02T00:28:50.248Z,13.40
2023-02-02T00:31:17.232Z,13.40
2023-02-02T00:33:51.068Z,13.40
2023-02-02T00:36:19.597Z,13.40
2023-02-02T00:38:47.790Z,13.40
2023-02-02T00:41:14.917Z,13.40
2023-02-02T00:43:42.020Z,13.40
2023-02-02T00:46:18.937Z,13.40
2023-02-02T00:48:45.815Z,13.30
2023-02-02T00:51:12.660Z,13.30
2023-02-02T00:53:39.570Z,13.30
2023-02-02T00:56:06.666Z,13.30
2023-02-02T00:58:33.481Z,13.20
2023-02-02T01:01:00.299Z,13.20
2023-02-02T01:03:27.202Z,13.20
2023-02-02T01:05:54.031Z,13.20
2023-02-02T01:08:20.846Z,13.10
2023-02-02T01:10:47.734Z,13.20
2023-02-02T01:13:14.610Z,13.20
2023-02-02T01:15:41.462Z,13.10
2023-02-02T01:18:08.740Z,13.10
2023-02-02T01:20:35.551Z,13.10
2023-02-02T01:23:02.397Z,13.10
2023-02-02T01:25:30.623Z,13.00
2023-02-02T01:27:57.472Z,13.00
2023-02-02T01:30:24.358Z,13.00
2023-02-02T01:32:51.267Z,12.90
2023-02-02T01:35:18.169Z,12.90
2023-02-02T01:37:45.082Z,12.90
2023-02-02T01:40:12.695Z,12.80
2023-02-02T01:42:39.548Z,12.70
2023-02-02T01:45:24.129Z,12.70
2023-02-02T01:47:54.886Z,12.70
2023-02-02T01:50:26.788Z,12.60
2023-02-02T01:52:57.029Z,12.60
2023-02-02T01:55:26.629Z,12.60
2023-02-02T01:58:06.349Z,12.60
2023-02-02T02:00:33.167Z,12.50
2023-02-02T02:03:11.532Z,12.50
2023-02-02T02:06:07.905Z,12.40
2023-02-02T02:08:47.927Z,12.30
2023-02-02T02:11:14.865Z,12.30
2023-02-02T02:14:00.387Z,12.20
2023-02-02T02:16:54.436Z,12.10
2023-02-02T02:19:59.461Z,12.10
2023-02-02T02:23:00.685Z,12.10
2023-02-02T02:26:03.974Z,12.00
2023-02-02T02:29:20.002Z,12.00
2023-02-02T02:32:19.919Z,12.00
2023-02-02T02:35:01.729Z,12.00
2023-02-02T02:37:43.487Z,12.00
2023-02-02T02:40:40.539Z,11.90
2023-02-02T02:43:21.450Z,11.90
2023-02-02T02:45:48.680Z,11.90
2023-02-02T02:48:15.539Z,11.80
2023-02-02T02:50:42.548Z,11.80
2023-02-02T02:53:20.209Z,11.80
2023-02-02T02:55:54.617Z,11.80
2023-02-02T02:58:41.696Z,11.80
2023-02-02T03:01:20.850Z,11.70
2023-02-02T03:03:56.247Z,11.70
2023-02-02T03:06:41.422Z,11.70
2023-02-02T03:09:25.482Z,11.70
2023-02-02T03:11:52.567Z,11.70
2023-02-02T03:14:19.502Z,11.70
2023-02-02T03:16:46.369Z,11.70
2023-02-02T03:19:13.333Z,11.70
2023-02-02T03:21:40.174Z,11.70
2023-02-02T03:24:07.274Z,11.70
2023-02-02T03:26:35.213Z,11.60
2023-02-02T03:29:02.721Z,11.60
2023-02-02T03:31:30.337Z,11.60
2023-02-02T03:33:57.282Z,11.60
2023-02-02T03:36:24.150Z,11.50
2023-02-02T03:38:51.009Z,11.50
2023-02-02T03:41:17.934Z,11.50
2023-02-02T03:43:44.895Z,11.50
2023-02-02T03:46:11.896Z,11.50
2023-02-02T03:48:39.583Z,11.40
2023-02-02T03:51:11.961Z,11.40
2023-02-02T03:53:39.963Z,11.40
2023-02-02T03:56:07.218Z,11.40
2023-02-02T03:58:34.035Z,11.40
2023-02-02T04:01:05.683Z,11.30
2023-02-02T04:03:33.427Z,11.30
2023-02-02T04:06:00.720Z,11.30
2023-02-02T04:08:28.577Z,11.30
2023-02-02T04:10:55.519Z,11.40
2023-02-02T04:13:22.371Z,11.30
2023-02-02T04:15:57.337Z,11.30
2023-02-02T04:18:24.225Z,11.40
2023-02-02T04:20:55.562Z,11.40
2023-02-02T04:23:22.450Z,11.40
2023-02-02T04:25:50.661Z,11.40
2023-02-02T04:28:18.071Z,11.40
2023-02-02T04:30:45.023Z,11.30
2023-02-02T04:33:11.914Z,11.30
2023-02-02T04:35:38.779Z,11.30
2023-02-02T04:38:05.660Z,11.30
2023-02-02T04:40:32.520Z,11.30
2023-02-02T04:42:59.368Z,11.30
2023-02-02T04:45:26.580Z,11.20
2023-02-02T04:47:53.590Z,11.30
2023-02-02T04:50:20.475Z,11.20
2023-02-02T04:52:47.436Z,11.20
2023-02-02T04:55:14.533Z,11.20
2023-02-02T04:57:41.507Z,11.20
2023-02-02T05:00:11.546Z,11.10
2023-02-02T05:02:39.326Z,11.10
2023-02-02T05:05:09.534Z,11.10
2023-02-02T05:07:36.562Z,11.10
2023-02-02T05:10:04.984Z,11.00
2023-02-02T05:12:31.857Z,11.00
2023-02-02T05:15:01.193Z,10.90
2023-02-02T05:17:28.176Z,11.00
2023-02-02T05:19:54.990Z,10.90
2023-02-02T05:22:21.876Z,10.90
2023-02-02T05:24:48.760Z,10.90
2023-02-02T05:27:15.577Z,10.90
2023-02-02T05:29:42.459Z,10.90
2023-02-02T05:32:09.357Z,10.90
2023-02-02T05:34:36.217Z,10.90
2023-02-02T05:37:03.159Z,10.90
2023-02-02T05:39:29.959Z,10.90
2023-02-02T05:41:56.803Z,10.90
2023-02-02T05:44:23.814Z,10.90
2023-02-02T05:46:50.654Z,10.90
2023-02-02T05:49:17.485Z,10.90
2023-02-02T05:51:48.614Z,10.80
2023-02-02T05:54:19.455Z,10.80
2023-02-02T05:56:51.759Z,10.70
2023-02-02T05:59:19.324Z,10.70
2023-02-02T06:01:46.925Z,10.70
2023-02-02T06:04:14.831Z,10.60
2023-02-02T06:06:42.253Z,10.60
2023-02-02T06:09:09.196Z,10.60
2023-02-02T06:11:36.113Z,10.60
2023-02-02T06:14:03.025Z,10.60
2023-02-02T06:16:29.860Z,10.60
2023-02-02T06:18:57.136Z,10.60
2023-02-02T06:21:24.803Z,10.60
2023-02-02T06:23:52.268Z,10.60
2023-02-02T06:26:19.327Z,10.50
2023-02-02T06:28:50.731Z,10.50
2023-02-02T06:31:19.648Z,10.50
2023-02-02T06:33:54.935Z,10.50
2023-02-02T06:36:22.283Z,10.50
2023-02-02T06:38:50.796Z,10.50
2023-02-02T06:41:18.514Z,10.50
2023-02-02T06:43:45.523Z,10.50
2023-02-02T06:46:12.732Z,10.50
2023-02-02T06:48:39.715Z,10.50
2023-02-02T06:51:06.750Z,10.40
2023-02-02T06:53:34.494Z,10.40
2023-02-02T06:56:04.806Z,10.40
2023-02-02T06:58:33.212Z,10.40
2023-02-02T07:01:05.451Z,10.40
2023-02-02T07:03:33.376Z,10.30
2023-02-02T07:06:09.966Z,10.30
2023-02-02T07:08:36.806Z,10.30
2023-02-02T07:11:13.599Z,10.30
2023-02-02T07:13:46.949Z,10.30
2023-02-02T07:16:14.401Z,10.40
2023-02-02T07:18:43.234Z,10.40
2023-02-02T07:21:19.991Z,10.40
2023-02-02T07:23:47.322Z,10.50
2023-02-02T07:26:15.001Z,10.50
2023-02-02T07:28:42.166Z,10.50
2023-02-02T07:31:20.766Z,10.50
2023-02-02T07:33:48.299Z,10.60
2023-02-02T07:36:18.077Z,10.60
2023-02-02T07:38:46.446Z,10.60
2023-02-02T07:41:14.501Z,10.70
2023-02-02T07:43:41.760Z,10.70
2023-02-02T07:46:10.333Z,10.70
2023-02-02T07:48:37.531Z,10.80
2023-02-02T07:51:07.235Z,10.90
2023-02-02T07:53:34.992Z,10.90
2023-02-02T07:56:12.818Z,11.00
2023-02-02T07:58:39.929Z,11.00
2023-02-02T08:01:08.984Z,11.10
2023-02-02T08:03:37.631Z,11.10
2023-02-02T08:06:18.702Z,11.20
2023-02-02T08:08:46.381Z,11.20
2023-02-02T08:11:15.583Z,11.30
2023-02-02T08:13:43.641Z,11.40
2023-02-02T08:16:11.694Z,11.50
2023-02-02T08:18:39.419Z,11.60
2023-02-02T08:21:10.745Z,11.80
2023-02-02T08:23:39.515Z,12.00
2023-02-02T08:26:18.411Z,12.30
2023-02-02T08:28:48.403Z,12.70
2023-02-02T08:31:19.716Z,13.10
2023-02-02T08:33:46.815Z,13.60
2023-02-02T08:36:16.201Z,14.10
2023-02-02T08:38:43.194Z,14.70
2023-02-02T08:41:13.177Z,15.20
2023-02-02T08:43:40.929Z,15.70
2023-02-02T08:46:10.970Z,16.20
2023-02-02T08:48:38.779Z,16.80
2023-02-02T08:51:06.415Z,17.40
2023-02-02T08:53:34.191Z,17.90
2023-02-02T08:56:18.626Z,18.40
2023-02-02T08:58:50.814Z,19.00
2023-02-02T09:01:18.889Z,19.50
2023-02-02T09:03:46.235Z,19.90
2023-02-02T09:06:19.030Z,20.20
2023-02-02T09:08:47.005Z,20.50
2023-02-02T09:11:17.190Z,20.80
2023-02-02T09:13:45.952Z,20.90
2023-02-02T09:16:14.751Z,21.00
2023-02-02T09:18:42.230Z,21.00
2023-02-02T09:21:12.134Z,20.90
2023-02-02T09:23:41.185Z,20.70
2023-02-02T09:26:23.485Z,20.30
2023-02-02T09:29:02.566Z,19.90
2023-02-02T09:31:31.003Z,19.40
2023-02-02T09:34:04.742Z,19.00
2023-02-02T09:36:32.411Z,18.60
2023-02-02T09:38:59.631Z,18.20
2023-02-02T09:41:38.807Z,17.80
2023-02-02T09:44:39.767Z,17.40
2023-02-02T09:47:33.860Z,17.10
2023-02-02T09:50:35.061Z,16.70
2023-02-02T09:53:07.821Z,16.60
2023-02-02T09:55:41.479Z,16.50
2023-02-02T09:58:14.152Z,16.40
2023-02-02T10:01:13.700Z,16.50
2023-02-02T10:03:57.012Z,16.50
2023-02-02T10:06:42.228Z,16.60
2023-02-02T10:09:48.185Z,16.70
2023-02-02T10:12:40.940Z,16.60
2023-02-02T10:15:26.105Z,16.60
2023-02-02T10:17:53.073Z,16.50
2023-02-02T10:20:40.954Z,16.40
2023-02-02T10:23:36.592Z,16.30
2023-02-02T10:26:19.800Z,16.20
2023-02-02T10:29:27.224Z,16.10
2023-02-02T10:32:23.212Z,16.00
2023-02-02T10:35:13.577Z,15.90
2023-02-02T10:37:57.140Z,15.80
2023-02-02T10:40:47.109Z,15.70
2023-02-02T10:43:48.589Z,15.60
2023-02-02T10:46:31.436Z,15.60
2023-02-02T10:49:27.340Z,15.60
2023-02-02T10:51:58.121Z,15.50
2023-02-02T10:54:55.947Z,15.50
2023-02-02T10:57:49.101Z,15.50
2023-02-02T11:00:31.217Z,15.40
2023-02-02T11:02:59.070Z,15.50
2023-02-02T11:05:48.464Z,15.40
2023-02-02T11:08:25.084Z,15.40
2023-02-02T11:10:55.852Z,15.40
2023-02-02T11:13:30.339Z,15.40
2023-02-02T11:16:26.961Z,15.40
2023-02-02T11:18:55.567Z,15.40
2023-02-02T11:21:27.372Z,15.40
2023-02-02T11:23:58.008Z,15.40
2023-02-02T11:26:25.913Z,15.50
2023-02-02T11:28:58.712Z,15.50
2023-02-02T11:31:32.592Z,15.60
2023-02-02T11:34:20.491Z,15.60
2023-02-02T11:37:15.592Z,15.60
2023-02-02T11:39:44.204Z,15.70
2023-02-02T11:42:27.306Z,15.80
2023-02-02T11:44:57.935Z,15.80
2023-02-02T11:47:31.138Z,15.80
2023-02-02T11:50:02.115Z,15.80
2023-02-02T11:52:33.155Z,15.80
2023-02-02T11:55:02.958Z,15.90
2023-02-02T11:57:30.630Z,15.90
2023-02-02T12:00:28.435Z,15.90
2023-02-02T12:02:55.351Z,16.00
2023-02-02T12:05:23.612Z,16.00
2023-02-02T12:07:50.561Z,16.10
2023-02-02T12:10:25.567Z,16.10
2023-02-02T12:13:04.475Z,16.30
2023-02-02T12:15:55.280Z,16.60
2023-02-02T12:18:49.012Z,17.00
2023-02-02T12:21:37.392Z,17.60
2023-02-02T12:24:54.651Z,18.10
2023-02-02T12:27:53.190Z,18.60
2023-02-02T12:30:45.202Z,19.00
2023-02-02T12:33:21.303Z,19.20
2023-02-02T12:36:09.631Z,19.40
2023-02-02T12:39:18.392Z,19.40
2023-02-02T12:42:22.526Z,19.30
2023-02-02T12:45:23.534Z,19.20
2023-02-02T12:48:24.961Z,19.00
2023-02-02T12:51:25.546Z,18.90
2023-02-02T12:54:33.130Z,18.60
2023-02-02T12:57:24.641Z,18.50
2023-02-02T13:00:09.555Z,18.30
2023-02-02T13:02:39.331Z,18.20
2023-02-02T13:05:37.344Z,18.00
2023-02-02T13:08:12.299Z,17.90
2023-02-02T13:10:43.192Z,17.80
2023-02-02T13:13:20.296Z,17.80
2023-02-02T13:15:54.281Z,17.80
2023-02-02T13:18:28.817Z,17.70
2023-02-02T13:21:01.933Z,17.60
2023-02-02T13:23:37.527Z,17.60
2023-02-02T13:26:12.990Z,17.60
2023-02-02T13:28:52.593Z,17.60
2023-02-02T13:31:34.542Z,17.70
2023-02-02T13:34:14.941Z,17.70
2023-02-02T13:36:47.788Z,17.80
2023-02-02T13:39:27.495Z,17.80
2023-02-02T13:41:54.810Z,17.80
2023-02-02T13:44:32.908Z,17.80
2023-02-02T13:47:04.085Z,17.90
2023-02-02T13:49:37.045Z,17.90
2023-02-02T13:52:18.834Z,17.90
2023-02-02T13:54:57.386Z,17.80
2023-02-02T13:57:56.970Z,17.80
2023-02-02T14:00:33.600Z,17.80
2023-02-02T14:03:05.278Z,17.70
2023-02-02T14:05:38.732Z,17.70
2023-02-02T14:08:21.474Z,17.60
2023-02-02T14:10:54.550Z,17.50
2023-02-02T14:13:55.003Z,17.50
2023-02-02T14:16:43.353Z,17.50
2023-02-02T14:19:19.018Z,17.40
2023-02-02T14:21:48.577Z,17.40
2023-02-02T14:24:24.401Z,17.30
2023-02-02T14:27:03.005Z,17.20
2023-02-02T14:29:32.892Z,17.20
2023-02-02T14:32:27.667Z,17.10
2023-02-02T14:34:59.554Z,17.10
2023-02-02T14:37:26.384Z,17.10
2023-02-02T14:40:06.188Z,17.00
2023-02-02T14:43:13.726Z,17.00
2023-02-02T14:46:15.944Z,16.90
2023-02-02T14:49:03.053Z,16.90
2023-02-02T14:51:33.090Z,16.80
2023-02-02T14:54:02.584Z,16.80
2023-02-02T14:56:54.448Z,16.70
2023-02-02T14:59:30.319Z,16.70
2023-02-02T15:02:19.307Z,16.70
2023-02-02T15:04:48.039Z,16.60
2023-02-02T15:07:23.972Z,16.60
2023-02-02T15:09:52.025Z,16.50
2023-02-02T15:12:45.137Z,16.50
2023-02-02T15:15:27.903Z,16.50
2023-02-02T15:18:16.834Z,16.40
2023-02-02T15:20:48.966Z,16.40
2023-02-02T15:23:30.729Z,16.40
2023-02-02T15:26:12.721Z,16.30
2023-02-02T15:28:49.311Z,16.30
2023-02-02T15:31:30.694Z,16.30
2023-02-02T15:34:05.166Z,16.30
2023-02-02T15:36:39.306Z,16.20
2023-02-02T15:39:19.581Z,16.20
2023-02-02T15:41:47.858Z,16.20
2023-02-02T15:44:27.018Z,16.20
2023-02-02T15:46:55.331Z,16.10
2023-02-02T15:49:34.779Z,16.10
2023-02-02T15:52:15.998Z,16.10
2023-02-02T15:54:57.371Z,16.10
2023-02-02T15:57:45.702Z,16.00
2023-02-02T16:00:34.642Z,16.00
2023-02-02T16:03:04.699Z,16.00
2023-02-02T16:05:31.504Z,16.00
2023-02-02T16:08:06.652Z,15.90
2023-02-02T16:10:35.239Z,15.90
2023-02-02T16:13:03.795Z,15.90
2023-02-02T16:15:34.533Z,15.80
2023-02-02T16:18:08.083Z,15.80
2023-02-02T16:20:37.230Z,15.70
2023-02-02T16:23:06.906Z,15.70
2023-02-02T16:25:47.202Z,15.60
2023-02-02T16:28:16.999Z,15.60
2023-02-02T16:30:45.609Z,15.60
2023-02-02T16:33:33.651Z,15.60
2023-02-02T16:36:00.808Z,15.60
2023-02-02T16:38:33.922Z,15.60
2023-02-02T16:41:05.510Z,15.60
2023-02-02T16:43:33.273Z,15.60
2023-02-02T16:46:07.511Z,15.60
2023-02-02T16:48:38.782Z,15.60
2023-02-02T16:51:17.963Z,15.50
2023-02-02T16:54:00.964Z,15.40
2023-02-02T16:56:44.829Z,15.50
2023-02-02T16:59:24.030Z,15.40
2023-02-02T17:01:56.591Z,15.40
2023-02-02T17:04:27.860Z,15.40
2023-02-02T17:06:58.232Z,15.30
2023-02-02T17:09:35.858Z,15.30
2023-02-02T17:12:12.141Z,15.30
2023-02-02T17:14:54.674Z,15.20
2023-02-02T17:17:21.616Z,15.20
2023-02-02T17:19:48.464Z,15.20
2023-02-02T17:22:17.601Z,15.20
2023-02-02T17:24:46.685Z,15.20
2023-02-02T17:27:17.812Z,15.20
2023-02-02T17:29:46.305Z,15.20
2023-02-02T17:32:15.994Z,15.20
2023-02-02T17:34:42.815Z,15.20
2023-02-02T17:37:09.991Z,15.20
2023-02-02T17:39:36.856Z,15.20
2023-02-02T17:42:04.870Z,15.30
2023-02-02T17:44:31.882Z,15.30
2023-02-02T17:46:58.723Z,15.30
2023-02-02T17:49:25.543Z,15.30
2023-02-02T17:51:53.866Z,15.30
2023-02-02T17:54:20.726Z,15.20
2023-02-02T17:56:47.576Z,15.20
2023-02-02T17:59:14.529Z,15.20
2023-02-02T18:01:44.139Z,15.20
2023-02-02T18:04:14.009Z,15.20
2023-02-02T18:06:40.950Z,15.20
2023-02-02T18:09:09.024Z,15.10
2023-02-02T18:11:35.890Z,15.10
2023-02-02T18:14:03.066Z,15.10
2023-02-02T18:16:30.125Z,15.00
2023-02-02T18:18:58.472Z,15.00
2023-02-02T18:21:26.524Z,15.00
2023-02-02T18:23:53.422Z,15.00
2023-02-02T18:26:22.464Z,15.00
2023-02-02T18:28:50.534Z,14.90
2023-02-02T18:31:19.611Z,14.90
2023-02-02T18:33:47.704Z,14.90
2023-02-02T18:36:18.932Z,14.80
2023-02-02T18:38:47.515Z,14.80
2023-02-02T18:41:16.065Z,14.80
2023-02-02T18:43:44.742Z,14.70
2023-02-02T18:46:13.835Z,14.70
2023-02-02T18:48:42.408Z,14.60
2023-02-02T18:51:16.165Z,14.60
2023-02-02T18:53:44.337Z,14.50
2023-02-02T18:56:13.053Z,14.50
2023-02-02T18:58:40.901Z,14.50
2023-02-02T19:01:09.942Z,14.50
2023-02-02T19:03:37.116Z,14.50
2023-02-02T19:06:24.008Z,14.50
2023-02-02T19:08:50.871Z,14.40
2023-02-02T19:11:20.308Z,14.50
2023-02-02T19:13:47.654Z,14.50
2023-02-02T19:16:26.761Z,14.50
2023-02-02T19:19:00.467Z,14.50
2023-02-02T19:21:30.540Z,14.50
2023-02-02T19:23:59.344Z,14.50
2023-02-02T19:26:28.145Z,14.50
2023-02-02T19:29:13.136Z,14.50
2023-02-02T19:31:41.111Z,14.60
2023-02-02T19:34:19.973Z,14.60
2023-02-02T19:36:49.361Z,14.60
2023-02-02T19:39:20.517Z,14.60
2023-02-02T19:41:47.902Z,14.60
2023-02-02T19:44:18.569Z,14.60
2023-02-02T19:46:48.935Z,14.60
2023-02-02T19:49:36.636Z,14.60
2023-02-02T19:52:11.568Z,14.60
2023-02-02T19:54:42.268Z,14.60
2023-02-02T19:57:17.430Z,14.60
2023-02-02T19:59:47.665Z,14.60
2023-02-02T20:02:35.503Z,14.60
2023-02-02T20:05:14.260Z,14.70
2023-02-02T20:07:41.327Z,14.60
2023-02-02T20:10:27.221Z,14.70
2023-02-02T20:12:55.321Z,14.60
2023-02-02T20:15:29.119Z,14.60
2023-02-02T20:17:58.307Z,14.60
2023-02-02T20:20:32.994Z,14.60
2023-02-02T20:23:00.049Z,14.60
2023-02-02T20:25:26.950Z,14.60
2023-02-02T20:27:54.416Z,14.60
2023-02-02T20:30:30.685Z,14.60
2023-02-02T20:32:59.707Z,14.50
2023-02-02T20:35:30.441Z,14.50
2023-02-02T20:37:57.614Z,14.50
2023-02-02T20:40:29.626Z,14.50
2023-02-02T20:42:58.363Z,14.40
2023-02-02T20:45:25.834Z,14.40
2023-02-02T20:47:53.422Z,14.30
2023-02-02T20:50:22.094Z,14.30
2023-02-02T20:52:51.024Z,14.30
2023-02-02T20:55:18.248Z,14.30
2023-02-02T20:57:45.153Z,14.30
2023-02-02T21:00:16.160Z,14.30
2023-02-02T21:02:43.247Z,14.30
2023-02-02T21:05:10.124Z,14.30
2023-02-02T21:07:37.151Z,14.30
2023-02-02T21:10:05.321Z,14.30
2023-02-02T21:12:32.298Z,14.30
2023-02-02T21:14:59.276Z,14.30
2023-02-02T21:17:27.551Z,14.20
2023-02-02T21:19:54.455Z,14.20
2023-02-02T21:22:21.373Z,14.20
2023-02-02T21:24:48.506Z,14.20
2023-02-02T21:27:15.568Z,14.20
2023-02-02T21:29:42.460Z,14.30
2023-02-02T21:32:09.445Z,14.20
2023-02-02T21:34:37.911Z,14.20
2023-02-02T21:37:14.936Z,14.20
2023-02-02T21:39:48.481Z,14.20
2023-02-02T21:42:22.067Z,14.20
2023-02-02T21:44:52.573Z,14.10
2023-02-02T21:47:41.475Z,14.20
2023-02-02T21:50:17.807Z,14.10
2023-02-02T21:52:45.118Z,14.10
2023-02-02T21:55:27.283Z,14.20
2023-02-02T21:57:56.996Z,14.20
2023-02-02T22:00:30.971Z,14.20
2023-02-02T22:02:59.065Z,14.20
2023-02-02T22:05:36.918Z,14.20
2023-02-02T22:08:28.690Z,14.30
2023-02-02T22:10:55.603Z,14.30
2023-02-02T22:13:25.075Z,14.20
2023-02-02T22:15:53.241Z,14.20
2023-02-02T22:18:23.241Z,14.20
2023-02-02T22:20:51.721Z,14.20
2023-02-02T22:23:22.283Z,14.20
2023-02-02T22:25:55.614Z,14.10
2023-02-02T22:28:30.289Z,14.10
2023-02-02T22:30:58.611Z,14.10
2023-02-02T22:33:26.756Z,14.10
2023-02-02T22:35:54.145Z,14.10
2023-02-02T22:38:23.788Z,14.10
2023-02-02T22:40:52.125Z,14.10
2023-02-02T22:43:21.062Z,14.20
2023-02-02T22:45:49.139Z,14.20
2023-02-02T22:48:16.682Z,14.20
2023-02-02T22:50:43.890Z,14.20
2023-02-02T22:53:10.951Z,14.20
2023-02-02T22:55:37.829Z,14.20
2023-02-02T22:58:04.731Z,14.30
2023-02-02T23:00:33.231Z,14.20
2023-02-02T23:03:00.400Z,14.20
2023-02-02T23:05:28.005Z,14.20
2023-02-02T23:07:55.563Z,14.20
2023-02-02T23:10:25.215Z,14.30
2023-02-02T23:12:55.008Z,14.30
2023-02-02T23:15:22.631Z,14.30
2023-02-02T23:17:49.959Z,14.30
2023-02-02T23:20:17.670Z,14.30
2023-02-02T23:22:44.660Z,14.30
2023-02-02T23:25:13.511Z,14.30
2023-02-02T23:27:40.909Z,14.40
2023-02-02T23:30:09.109Z,14.40
2023-02-02T23:32:36.257Z,14.40
2023-02-02T23:35:03.668Z,14.30
2023-02-02T23:37:30.567Z,14.30
2023-02-02T23:39:57.510Z,14.30
2023-02-02T23:42:25.775Z,14.30
2023-02-02T23:44:52.924Z,14.30
2023-02-02T23:47:20.199Z,14.30
2023-02-02T23:49:47.471Z,14.30
2023-02-02T23:52:14.916Z,14.30
2023-02-02T23:54:42.898Z,14.30
2023-02-02T23:57:10.424Z,14.30
2023-02-02T23:59:37.363Z,14.30
